Aviation Digital Data Service (ADDS)

Output produced by METARs form (1513 UTC 19 August 2017)
found at http://www.aviationweather.gov/adds/metars/
 
METAR text: RJNK 191500Z 07003KT 050V110 9999 FEW020 SCT/// 24/21 Q1012
Conditions at: RJNK (KOMATSU (CIV/JAS, JP) observed 1500 UTC 19 August 2017
Temperature: 24.0°C (75°F)
Dewpoint: 21.0°C (70°F) [RH = 83%]
Pressure (altimeter): 29.88 inches Hg (1012.0 mb)
Winds: from the ENE (70 degrees) at 3 MPH (3 knots; 1.6 m/s)
Visibility: 6 or more miles (10+ km)
Ceiling: at least 12,000 feet AGL
Clouds: few clouds at 2000 feet AGL
Weather: no significant weather observed at this time